sensor_id;sensor_type;location;lat;lon;timestamp;pressure;altitude;pressure_sealevel;temperature;humidity
20027;BME280;10174;42.688;23.344;2023-02-11T00:00:06;97022.97;;;-3.11;64.06
20027;BME280;10174;42.688;23.344;2023-02-11T00:02:32;97011.34;;;-3.18;64.09
20027;BME280;10174;42.688;23.344;2023-02-11T00:04:58;97026.84;;;-3.15;63.88
20027;BME280;10174;42.688;23.344;2023-02-11T00:07:27;96989.84;;;-3.43;64.36
20027;BME280;10174;42.688;23.344;2023-02-11T00:09:53;96886.09;;;-3.99;64.23
20027;BME280;10174;42.688;23.344;2023-02-11T00:12:19;96874.56;;;-4.17;63.49
20027;BME280;10174;42.688;23.344;2023-02-11T00:14:44;97021.03;;;-3.28;64.04
20027;BME280;10174;42.688;23.344;2023-02-11T00:17:09;97021.66;;;-3.36;63.84
20027;BME280;10174;42.688;23.344;2023-02-11T00:19:35;96984.84;;;-3.55;64.13
20027;BME280;10174;42.688;23.344;2023-02-11T00:22:03;97030.69;;;-3.29;63.72
20027;BME280;10174;42.688;23.344;2023-02-11T00:24:28;97026.53;;;-3.31;63.88
20027;BME280;10174;42.688;23.344;2023-02-11T00:26:54;96877.78;;;-4.14;63.75
20027;BME280;10174;42.688;23.344;2023-02-11T00:29:20;96891.31;;;-4.08;63.42
20027;BME280;10174;42.688;23.344;2023-02-11T00:31:45;97013.91;;;-3.37;63.90
20027;BME280;10174;42.688;23.344;2023-02-11T00:34:10;97017.66;;;-3.40;64.08
20027;BME280;10174;42.688;23.344;2023-02-11T00:36:36;97032.84;;;-3.44;64.67
20027;BME280;10174;42.688;23.344;2023-02-11T00:39:01;97017.34;;;-3.47;64.02
20027;BME280;10174;42.688;23.344;2023-02-11T00:41:27;96886.53;;;-4.34;64.07
20027;BME280;10174;42.688;23.344;2023-02-11T00:43:53;96913.41;;;-4.11;64.20
20027;BME280;10174;42.688;23.344;2023-02-11T00:46:19;97019.25;;;-3.59;63.86
20027;BME280;10174;42.688;23.344;2023-02-11T00:48:44;97010.09;;;-3.64;63.74
20027;BME280;10174;42.688;23.344;2023-02-11T00:51:10;97009.84;;;-3.61;64.20
20027;BME280;10174;42.688;23.344;2023-02-11T00:53:36;97011.31;;;-3.68;63.72
20027;BME280;10174;42.688;23.344;2023-02-11T00:56:02;97005.53;;;-3.62;63.75
20027;BME280;10174;42.688;23.344;2023-02-11T00:58:28;96990.94;;;-3.86;64.41
20027;BME280;10174;42.688;23.344;2023-02-11T01:00:53;96862.47;;;-4.70;63.90
20027;BME280;10174;42.688;23.344;2023-02-11T01:03:19;96861.19;;;-4.76;64.36
20027;BME280;10174;42.688;23.344;2023-02-11T01:05:44;97006.44;;;-3.83;64.20
20027;BME280;10174;42.688;23.344;2023-02-11T01:08:10;97006.69;;;-3.86;64.56
20027;BME280;10174;42.688;23.344;2023-02-11T01:10:35;97010.28;;;-3.87;64.20
20027;BME280;10174;42.688;23.344;2023-02-11T01:13:01;96982.03;;;-3.95;64.62
20027;BME280;10174;42.688;23.344;2023-02-11T01:15:26;97004.50;;;-3.81;64.08
20027;BME280;10174;42.688;23.344;2023-02-11T01:17:52;97001.19;;;-3.83;64.21
20027;BME280;10174;42.688;23.344;2023-02-11T01:20:24;97006.59;;;-3.74;64.17
20027;BME280;10174;42.688;23.344;2023-02-11T01:22:49;96817.53;;;-4.87;63.75
20027;BME280;10174;42.688;23.344;2023-02-11T01:25:15;97013.09;;;-3.79;63.50
20027;BME280;10174;42.688;23.344;2023-02-11T01:27:40;96997.59;;;-3.82;63.91
20027;BME280;10174;42.688;23.344;2023-02-11T01:30:07;96961.53;;;-4.10;63.80
20027;BME280;10174;42.688;23.344;2023-02-11T01:32:33;96953.19;;;-4.16;63.79
20027;BME280;10174;42.688;23.344;2023-02-11T01:34:59;96962.22;;;-4.08;64.15
20027;BME280;10174;42.688;23.344;2023-02-11T01:37:24;96878.38;;;-4.62;64.65
20027;BME280;10174;42.688;23.344;2023-02-11T01:39:50;96838.03;;;-4.92;64.42
20027;BME280;10174;42.688;23.344;2023-02-11T01:42:19;96992.66;;;-4.06;64.65
20027;BME280;10174;42.688;23.344;2023-02-11T01:44:45;96986.81;;;-4.09;64.41
20027;BME280;10174;42.688;23.344;2023-02-11T01:47:13;96800.38;;;-5.33;64.63
20027;BME280;10174;42.688;23.344;2023-02-11T01:49:41;96993.44;;;-4.15;65.01
20027;BME280;10174;42.688;23.344;2023-02-11T01:52:24;96991.31;;;-4.21;65.34
20027;BME280;10174;42.688;23.344;2023-02-11T01:54:53;96893.22;;;-4.72;65.17
20027;BME280;10174;42.688;23.344;2023-02-11T01:57:41;96929.56;;;-4.47;64.81
20027;BME280;10174;42.688;23.344;2023-02-11T02:00:11;96991.06;;;-4.18;65.35
20027;BME280;10174;42.688;23.344;2023-02-11T02:02:59;96990.81;;;-4.15;65.18
20027;BME280;10174;42.688;23.344;2023-02-11T02:10:45;96892.72;;;-4.66;64.79
20027;BME280;10174;42.688;23.344;2023-02-11T02:13:11;96895.22;;;-4.65;64.52
20027;BME280;10174;42.688;23.344;2023-02-11T02:15:39;96980.72;;;-4.10;64.59
20027;BME280;10174;42.688;23.344;2023-02-11T02:18:40;96986.94;;;-4.11;64.52
20027;BME280;10174;42.688;23.344;2023-02-11T02:23:51;96982.16;;;-4.27;65.20
20027;BME280;10174;42.688;23.344;2023-02-11T02:34:36;96985.75;;;-4.28;65.30
20027;BME280;10174;42.688;23.344;2023-02-11T02:37:15;96990.88;;;-4.26;65.20
20027;BME280;10174;42.688;23.344;2023-02-11T02:39:44;96963.97;;;-4.40;65.51
20027;BME280;10174;42.688;23.344;2023-02-11T02:42:12;96977.19;;;-4.30;65.26
20027;BME280;10174;42.688;23.344;2023-02-11T02:44:38;96967.19;;;-4.36;65.42
20027;BME280;10174;42.688;23.344;2023-02-11T02:47:04;96988.88;;;-4.34;65.29
20027;BME280;10174;42.688;23.344;2023-02-11T02:49:29;96839.22;;;-5.27;65.75
20027;BME280;10174;42.688;23.344;2023-02-11T02:52:24;96928.22;;;-4.83;65.41
20027;BME280;10174;42.688;23.344;2023-02-11T03:00:46;96987.81;;;-4.53;65.61
20027;BME280;10174;42.688;23.344;2023-02-11T03:03:51;96991.38;;;-4.54;66.10
20027;BME280;10174;42.688;23.344;2023-02-11T03:09:31;96981.91;;;-4.66;65.55
20027;BME280;10174;42.688;23.344;2023-02-11T03:11:55;96851.81;;;-5.53;65.82
20027;BME280;10174;42.688;23.344;2023-02-11T03:14:23;96998.81;;;-4.59;66.19
20027;BME280;10174;42.688;23.344;2023-02-11T03:16:53;96925.59;;;-5.04;66.01
20027;BME280;10174;42.688;23.344;2023-02-11T03:19:25;96955.53;;;-4.86;66.34
20027;BME280;10174;42.688;23.344;2023-02-11T03:21:53;96852.06;;;-5.56;66.34
20027;BME280;10174;42.688;23.344;2023-02-11T03:24:28;96980.78;;;-4.73;66.37
20027;BME280;10174;42.688;23.344;2023-02-11T03:26:59;96985.28;;;-4.75;66.73
20027;BME280;10174;42.688;23.344;2023-02-11T03:29:39;96980.44;;;-4.80;66.77
20027;BME280;10174;42.688;23.344;2023-02-11T03:37:32;96985.97;;;-4.94;68.79
20027;BME280;10174;42.688;23.344;2023-02-11T03:40:07;96991.69;;;-4.89;69.16
20027;BME280;10174;42.688;23.344;2023-02-11T03:42:42;96975.81;;;-4.88;69.01
20027;BME280;10174;42.688;23.344;2023-02-11T03:45:11;96964.88;;;-4.93;67.47
20027;BME280;10174;42.688;23.344;2023-02-11T03:47:43;96870.88;;;-5.51;67.33
20027;BME280;10174;42.688;23.344;2023-02-11T03:50:11;96973.88;;;-4.86;67.51
20027;BME280;10174;42.688;23.344;2023-02-11T03:52:39;96984.63;;;-4.89;67.25
20027;BME280;10174;42.688;23.344;2023-02-11T03:55:08;96947.28;;;-5.02;66.85
20027;BME280;10174;42.688;23.344;2023-02-11T03:57:36;96975.56;;;-4.85;67.42
20027;BME280;10174;42.688;23.344;2023-02-11T04:00:04;96980.13;;;-4.87;67.54
20027;BME280;10174;42.688;23.344;2023-02-11T04:02:32;96982.00;;;-4.89;67.54
20027;BME280;10174;42.688;23.344;2023-02-11T04:04:58;96960.47;;;-4.92;66.85
20027;BME280;10174;42.688;23.344;2023-02-11T04:07:25;96990.78;;;-4.78;67.25
20027;BME280;10174;42.688;23.344;2023-02-11T04:09:50;96962.44;;;-4.85;67.58
20027;BME280;10174;42.688;23.344;2023-02-11T04:12:16;96901.78;;;-5.12;66.39
20027;BME280;10174;42.688;23.344;2023-02-11T04:14:42;96983.31;;;-4.62;66.61
20027;BME280;10174;42.688;23.344;2023-02-11T04:17:07;96827.91;;;-5.60;66.04
20027;BME280;10174;42.688;23.344;2023-02-11T04:19:33;96976.91;;;-4.69;66.49
20027;BME280;10174;42.688;23.344;2023-02-11T04:21:59;96983.53;;;-4.75;66.74
20027;BME280;10174;42.688;23.344;2023-02-11T04:24:24;96989.84;;;-4.77;66.54
20027;BME280;10174;42.688;23.344;2023-02-11T04:26:49;96971.13;;;-4.84;66.81
20027;BME280;10174;42.688;23.344;2023-02-11T04:29:15;96950.28;;;-5.07;67.10
20027;BME280;10174;42.688;23.344;2023-02-11T04:31:40;96977.75;;;-5.01;67.86
20027;BME280;10174;42.688;23.344;2023-02-11T04:34:06;96987.16;;;-5.31;69.33
20027;BME280;10174;42.688;23.344;2023-02-11T04:36:31;96951.19;;;-5.73;69.96
20027;BME280;10174;42.688;23.344;2023-02-11T04:38:56;96977.22;;;-5.60;70.38
20027;BME280;10174;42.688;23.344;2023-02-11T04:41:22;96834.34;;;-6.51;70.81
20027;BME280;10174;42.688;23.344;2023-02-11T04:43:47;96984.63;;;-5.87;70.94
20027;BME280;10174;42.688;23.344;2023-02-11T04:46:12;96972.75;;;-6.14;71.86
20027;BME280;10174;42.688;23.344;2023-02-11T04:48:38;96975.13;;;-6.22;72.11
20027;BME280;10174;42.688;23.344;2023-02-11T04:51:03;96947.41;;;-6.36;72.24
20027;BME280;10174;42.688;23.344;2023-02-11T04:53:30;96971.34;;;-6.18;72.25
20027;BME280;10174;42.688;23.344;2023-02-11T04:55:56;96838.94;;;-7.00;72.16
20027;BME280;10174;42.688;23.344;2023-02-11T04:58:21;96975.63;;;-6.29;72.32
20027;BME280;10174;42.688;23.344;2023-02-11T05:00:47;96960.72;;;-6.28;72.39
20027;BME280;10174;42.688;23.344;2023-02-11T05:03:12;96774.97;;;-7.53;72.17
20027;BME280;10174;42.688;23.344;2023-02-11T05:05:39;96973.59;;;-6.25;72.17
20027;BME280;10174;42.688;23.344;2023-02-11T05:08:07;96976.09;;;-6.23;72.51
20027;BME280;10174;42.688;23.344;2023-02-11T05:10:33;96973.22;;;-6.20;72.27
20027;BME280;10174;42.688;23.344;2023-02-11T05:12:59;96961.00;;;-6.20;72.31
20027;BME280;10174;42.688;23.344;2023-02-11T05:15:25;96965.03;;;-6.16;72.34
20027;BME280;10174;42.688;23.344;2023-02-11T05:17:50;96957.28;;;-6.17;71.89
20027;BME280;10174;42.688;23.344;2023-02-11T05:20:16;96973.22;;;-6.20;71.86
20027;BME280;10174;42.688;23.344;2023-02-11T05:22:41;96960.03;;;-6.19;72.06
20027;BME280;10174;42.688;23.344;2023-02-11T05:25:07;96889.00;;;-6.82;71.79
20027;BME280;10174;42.688;23.344;2023-02-11T05:27:32;96955.81;;;-6.67;72.46
20027;BME280;10174;42.688;23.344;2023-02-11T05:29:57;96952.69;;;-6.72;72.93
20027;BME280;10174;42.688;23.344;2023-02-11T05:32:23;96962.72;;;-6.66;73.00
20027;BME280;10174;42.688;23.344;2023-02-11T05:34:48;96961.03;;;-6.67;73.18
20027;BME280;10174;42.688;23.344;2023-02-11T05:37:13;96852.28;;;-7.27;72.94
20027;BME280;10174;42.688;23.344;2023-02-11T05:39:39;96842.06;;;-7.30;72.83
20027;BME280;10174;42.688;23.344;2023-02-11T05:42:04;96957.50;;;-6.66;73.05
20027;BME280;10174;42.688;23.344;2023-02-11T05:44:30;96962.25;;;-6.59;73.30
20027;BME280;10174;42.688;23.344;2023-02-11T05:46:55;96966.50;;;-6.70;72.76
20027;BME280;10174;42.688;23.344;2023-02-11T05:49:21;96789.91;;;-7.79;72.79
20027;BME280;10174;42.688;23.344;2023-02-11T05:51:47;96840.34;;;-7.54;72.65
20027;BME280;10174;42.688;23.344;2023-02-11T05:54:12;96976.50;;;-6.64;72.62
20027;BME280;10174;42.688;23.344;2023-02-11T05:56:37;96856.59;;;-7.26;72.26
20027;BME280;10174;42.688;23.344;2023-02-11T05:59:03;96975.09;;;-6.56;72.25
20027;BME280;10174;42.688;23.344;2023-02-11T06:01:29;96889.16;;;-7.08;72.09
20027;BME280;10174;42.688;23.344;2023-02-11T06:03:54;96904.03;;;-7.08;72.07
20027;BME280;10174;42.688;23.344;2023-02-11T06:06:20;96839.28;;;-7.52;72.39
20027;BME280;10174;42.688;23.344;2023-02-11T06:08:45;96984.06;;;-6.72;72.68
20027;BME280;10174;42.688;23.344;2023-02-11T06:11:13;96950.97;;;-6.95;72.72
20027;BME280;10174;42.688;23.344;2023-02-11T06:13:39;96984.06;;;-6.72;73.24
20027;BME280;10174;42.688;23.344;2023-02-11T06:16:04;96980.50;;;-6.71;72.54
20027;BME280;10174;42.688;23.344;2023-02-11T06:18:30;96958.38;;;-6.78;73.18
20027;BME280;10174;42.688;23.344;2023-02-11T06:20:58;96983.88;;;-6.57;73.10
20027;BME280;10174;42.688;23.344;2023-02-11T06:23:23;96985.56;;;-6.45;72.49
20027;BME280;10174;42.688;23.344;2023-02-11T06:25:49;96982.47;;;-6.50;72.30
20027;BME280;10174;42.688;23.344;2023-02-11T06:28:14;96988.06;;;-6.43;72.62
20027;BME280;10174;42.688;23.344;2023-02-11T06:30:40;96983.19;;;-6.37;73.00
20027;BME280;10174;42.688;23.344;2023-02-11T06:33:05;96982.38;;;-6.37;72.44
20027;BME280;10174;42.688;23.344;2023-02-11T06:35:31;96988.19;;;-6.34;72.45
20027;BME280;10174;42.688;23.344;2023-02-11T06:37:58;96987.50;;;-6.24;72.66
20027;BME280;10174;42.688;23.344;2023-02-11T06:40:23;96983.09;;;-6.24;72.22
20027;BME280;10174;42.688;23.344;2023-02-11T06:42:48;96986.56;;;-6.12;72.25
20027;BME280;10174;42.688;23.344;2023-02-11T06:45:14;96984.44;;;-6.18;71.86
20027;BME280;10174;42.688;23.344;2023-02-11T06:47:40;96995.13;;;-6.10;71.85
20027;BME280;10174;42.688;23.344;2023-02-11T06:50:07;96992.63;;;-6.00;71.80
20027;BME280;10174;42.688;23.344;2023-02-11T06:52:33;96991.75;;;-5.90;71.71
20027;BME280;10174;42.688;23.344;2023-02-11T06:54:59;96990.56;;;-5.85;71.58
20027;BME280;10174;42.688;23.344;2023-02-11T06:57:24;96815.91;;;-6.84;71.29
20027;BME280;10174;42.688;23.344;2023-02-11T06:59:50;96998.66;;;-5.66;70.86
20027;BME280;10174;42.688;23.344;2023-02-11T07:02:15;97000.69;;;-5.58;70.39
20027;BME280;10174;42.688;23.344;2023-02-11T07:04:41;97004.84;;;-5.56;70.75
20027;BME280;10174;42.688;23.344;2023-02-11T07:07:06;96973.66;;;-5.59;70.14
20027;BME280;10174;42.688;23.344;2023-02-11T07:09:32;96922.25;;;-5.71;70.10
20027;BME280;10174;42.688;23.344;2023-02-11T07:11:58;96981.81;;;-5.41;69.74
20027;BME280;10174;42.688;23.344;2023-02-11T07:14:23;96961.03;;;-5.53;69.95
20027;BME280;10174;42.688;23.344;2023-02-11T07:16:49;96967.44;;;-5.46;70.07
20027;BME280;10174;42.688;23.344;2023-02-11T07:19:14;96979.56;;;-5.34;69.79
20027;BME280;10174;42.688;23.344;2023-02-11T07:21:39;96976.78;;;-5.21;69.83
20027;BME280;10174;42.688;23.344;2023-02-11T07:24:06;96868.94;;;-5.81;68.95
20027;BME280;10174;42.688;23.344;2023-02-11T07:26:32;96978.03;;;-5.04;69.27
20027;BME280;10174;42.688;23.344;2023-02-11T07:28:57;96969.22;;;-5.03;69.08
20027;BME280;10174;42.688;23.344;2023-02-11T07:31:24;96979.25;;;-4.87;68.75
20027;BME280;10174;42.688;23.344;2023-02-11T07:33:53;96941.47;;;-4.85;68.69
20027;BME280;10174;42.688;23.344;2023-02-11T07:36:19;96925.47;;;-4.81;68.10
20027;BME280;10174;42.688;23.344;2023-02-11T07:38:45;96950.56;;;-4.68;67.94
20027;BME280;10174;42.688;23.344;2023-02-11T07:41:14;96957.22;;;-4.42;68.04
20027;BME280;10174;42.688;23.344;2023-02-11T07:43:40;96953.28;;;-4.27;67.49
20027;BME280;10174;42.688;23.344;2023-02-11T07:46:12;96956.75;;;-4.26;67.33
20027;BME280;10174;42.688;23.344;2023-02-11T07:48:38;96954.75;;;-4.34;67.54
20027;BME280;10174;42.688;23.344;2023-02-11T07:51:09;96913.66;;;-4.55;67.08
20027;BME280;10174;42.688;23.344;2023-02-11T07:53:35;96959.84;;;-4.12;66.98
20027;BME280;10174;42.688;23.344;2023-02-11T07:56:05;96887.78;;;-4.59;67.07
20027;BME280;10174;42.688;23.344;2023-02-11T07:58:30;96962.09;;;-4.07;66.81
20027;BME280;10174;42.688;23.344;2023-02-11T08:01:04;96955.22;;;-3.98;66.41
20027;BME280;10174;42.688;23.344;2023-02-11T08:03:31;96919.06;;;-4.16;66.14
20027;BME280;10174;42.688;23.344;2023-02-11T08:05:57;96940.81;;;-4.04;66.07
20027;BME280;10174;42.688;23.344;2023-02-11T08:08:25;96947.50;;;-3.90;66.52
20027;BME280;10174;42.688;23.344;2023-02-11T08:10:51;96901.66;;;-4.17;65.93
20027;BME280;10174;42.688;23.344;2023-02-11T08:13:16;96950.81;;;-3.88;66.09
20027;BME280;10174;42.688;23.344;2023-02-11T08:15:42;96894.47;;;-4.15;66.04
20027;BME280;10174;42.688;23.344;2023-02-11T08:18:07;96934.84;;;-3.75;65.38
20027;BME280;10174;42.688;23.344;2023-02-11T08:20:32;96940.25;;;-3.67;65.75
20027;BME280;10174;42.688;23.344;2023-02-11T08:22:58;96822.72;;;-4.25;64.98
20027;BME280;10174;42.688;23.344;2023-02-11T08:25:23;96949.19;;;-3.38;64.14
20027;BME280;10174;42.688;23.344;2023-02-11T08:27:49;96937.13;;;-3.51;64.52
20027;BME280;10174;42.688;23.344;2023-02-11T08:30:14;96915.09;;;-3.50;64.19
20027;BME280;10174;42.688;23.344;2023-02-11T08:32:39;96932.84;;;-3.32;64.35
20027;BME280;10174;42.688;23.344;2023-02-11T08:35:05;96926.09;;;-3.15;63.69
20027;BME280;10174;42.688;23.344;2023-02-11T08:37:37;96922.75;;;-3.08;63.38
20027;BME280;10174;42.688;23.344;2023-02-11T08:40:03;96926.63;;;-2.92;63.32
20027;BME280;10174;42.688;23.344;2023-02-11T08:42:28;96941.59;;;-2.83;63.03
20027;BME280;10174;42.688;23.344;2023-02-11T08:44:53;96938.13;;;-2.74;62.91
20027;BME280;10174;42.688;23.344;2023-02-11T08:47:19;96935.63;;;-2.65;62.23
20027;BME280;10174;42.688;23.344;2023-02-11T08:49:44;96935.19;;;-2.71;62.33
20027;BME280;10174;42.688;23.344;2023-02-11T08:52:10;96939.06;;;-2.55;61.76
20027;BME280;10174;42.688;23.344;2023-02-11T08:54:35;96936.44;;;-2.55;62.02
20027;BME280;10174;42.688;23.344;2023-02-11T08:57:01;96936.81;;;-2.40;62.09
20027;BME280;10174;42.688;23.344;2023-02-11T08:59:27;96918.53;;;-2.42;61.39
20027;BME280;10174;42.688;23.344;2023-02-11T09:01:52;96919.84;;;-2.75;62.77
20027;BME280;10174;42.688;23.344;2023-02-11T09:04:18;96931.59;;;-2.50;63.03
20027;BME280;10174;42.688;23.344;2023-02-11T09:06:43;96814.66;;;-3.05;62.71
20027;BME280;10174;42.688;23.344;2023-02-11T09:09:11;96813.38;;;-2.91;62.59
20027;BME280;10174;42.688;23.344;2023-02-11T09:11:38;96882.75;;;-2.35;61.96
20027;BME280;10174;42.688;23.344;2023-02-11T09:14:05;96922.88;;;-2.13;61.90
20027;BME280;10174;42.688;23.344;2023-02-11T09:16:34;96913.53;;;-1.98;61.34
20027;BME280;10174;42.688;23.344;2023-02-11T09:19:00;96925.25;;;-1.82;61.07
20027;BME280;10174;42.688;23.344;2023-02-11T09:21:27;96916.72;;;-1.66;60.66
20027;BME280;10174;42.688;23.344;2023-02-11T09:23:52;96908.75;;;-1.56;60.08
20027;BME280;10174;42.688;23.344;2023-02-11T09:26:20;96882.38;;;-1.56;59.37
20027;BME280;10174;42.688;23.344;2023-02-11T09:28:47;96793.28;;;-2.17;59.12
20027;BME280;10174;42.688;23.344;2023-02-11T09:31:15;96793.16;;;-2.15;58.15
20027;BME280;10174;42.688;23.344;2023-02-11T09:33:43;96882.47;;;-1.48;58.04
20027;BME280;10174;42.688;23.344;2023-02-11T09:36:14;96869.88;;;-1.54;57.84
20027;BME280;10174;42.688;23.344;2023-02-11T09:38:40;96901.56;;;-1.18;57.28
20027;BME280;10174;42.688;23.344;2023-02-11T09:41:30;96903.81;;;-1.23;55.45
20027;BME280;10174;42.688;23.344;2023-02-11T09:43:59;96858.16;;;-1.42;55.55
20027;BME280;10174;42.688;23.344;2023-02-11T09:46:31;96887.47;;;-1.09;55.64
20027;BME280;10174;42.688;23.344;2023-02-11T09:48:58;96889.28;;;-0.92;54.83
20027;BME280;10174;42.688;23.344;2023-02-11T09:53:57;96875.69;;;-0.97;54.92
20027;BME280;10174;42.688;23.344;2023-02-11T09:56:25;96881.66;;;-0.95;54.39
20027;BME280;10174;42.688;23.344;2023-02-11T09:58:52;96851.19;;;-1.07;52.46
20027;BME280;10174;42.688;23.344;2023-02-11T10:06:46;96858.06;;;-0.17;50.09
20027;BME280;10174;42.688;23.344;2023-02-11T10:09:39;96848.25;;;0.93;47.72
20027;BME280;10174;42.688;23.344;2023-02-11T10:13:10;96730.00;;;2.44;43.46
20027;BME280;10174;42.688;23.344;2023-02-11T10:18:02;96828.06;;;6.47;37.24
20027;BME280;10174;42.688;23.344;2023-02-11T10:21:03;96816.59;;;6.05;36.24
20027;BME280;10174;42.688;23.344;2023-02-11T10:23:37;96801.59;;;6.52;34.63
20027;BME280;10174;42.688;23.344;2023-02-11T10:26:12;96802.22;;;8.60;32.06
20027;BME280;10174;42.688;23.344;2023-02-11T10:28:38;96794.25;;;8.47;31.86
20027;BME280;10174;42.688;23.344;2023-02-11T10:31:08;96783.47;;;8.60;31.42
20027;BME280;10174;42.688;23.344;2023-02-11T10:36:11;96765.03;;;9.78;29.84
20027;BME280;10174;42.688;23.344;2023-02-11T10:38:37;96763.69;;;11.15;28.33
20027;BME280;10174;42.688;23.344;2023-02-11T10:41:03;96745.22;;;11.66;26.78
20027;BME280;10174;42.688;23.344;2023-02-11T10:43:31;96734.22;;;10.36;28.64
20027;BME280;10174;42.688;23.344;2023-02-11T10:45:57;96747.47;;;10.92;27.48
20027;BME280;10174;42.688;23.344;2023-02-11T10:53:38;96685.91;;;9.99;27.65
20027;BME280;10174;42.688;23.344;2023-02-11T10:56:05;96722.38;;;9.26;28.48
20027;BME280;10174;42.688;23.344;2023-02-11T10:58:40;96651.31;;;9.54;28.01
20027;BME280;10174;42.688;23.344;2023-02-11T11:01:06;96726.44;;;9.54;28.05
20027;BME280;10174;42.688;23.344;2023-02-11T11:03:36;96660.13;;;9.79;27.33
20027;BME280;10174;42.688;23.344;2023-02-11T11:06:05;96704.84;;;8.48;29.39
20027;BME280;10174;42.688;23.344;2023-02-11T11:11:06;96714.25;;;9.76;27.64
20027;BME280;10174;42.688;23.344;2023-02-11T11:13:37;96707.00;;;10.63;26.72
20027;BME280;10174;42.688;23.344;2023-02-11T11:18:31;96699.19;;;8.88;28.01
20027;BME280;10174;42.688;23.344;2023-02-11T11:21:02;96701.00;;;7.85;30.67
20027;BME280;10174;42.688;23.344;2023-02-11T11:23:30;96682.34;;;8.49;29.59
20027;BME280;10174;42.688;23.344;2023-02-11T11:28:34;96695.56;;;10.19;27.73
20027;BME280;10174;42.688;23.344;2023-02-11T11:31:03;96694.13;;;10.65;27.78
20027;BME280;10174;42.688;23.344;2023-02-11T11:33:32;96661.25;;;8.27;28.58
20027;BME280;10174;42.688;23.344;2023-02-11T11:38:31;96648.94;;;7.09;30.59
20027;BME280;10174;42.688;23.344;2023-02-11T11:41:35;96679.19;;;6.76;30.88
20027;BME280;10174;42.688;23.344;2023-02-11T11:44:14;96670.31;;;7.22;30.24
20027;BME280;10174;42.688;23.344;2023-02-11T11:46:45;96675.91;;;6.74;30.71
20027;BME280;10174;42.688;23.344;2023-02-11T11:54:48;96670.13;;;8.28;30.28
20027;BME280;10174;42.688;23.344;2023-02-11T11:57:17;96661.50;;;6.88;32.79
20027;BME280;10174;42.688;23.344;2023-02-11T11:59:46;96643.19;;;7.77;31.79
20027;BME280;10174;42.688;23.344;2023-02-11T12:05:21;96636.56;;;9.26;29.64
20027;BME280;10174;42.688;23.344;2023-02-11T12:07:52;96639.69;;;9.60;29.05
20027;BME280;10174;42.688;23.344;2023-02-11T12:23:57;96577.66;;;9.87;26.49
20027;BME280;10174;42.688;23.344;2023-02-11T12:26:46;96572.16;;;10.66;25.37
20027;BME280;10174;42.688;23.344;2023-02-11T12:29:33;96598.19;;;8.31;27.44
20027;BME280;10174;42.688;23.344;2023-02-11T12:34:58;96590.72;;;8.90;27.48
20027;BME280;10174;42.688;23.344;2023-02-11T12:40:29;96579.28;;;8.26;28.79
20027;BME280;10174;42.688;23.344;2023-02-11T12:43:22;96483.34;;;6.82;29.29
20027;BME280;10174;42.688;23.344;2023-02-11T13:02:23;96563.00;;;7.64;31.00
20027;BME280;10174;42.688;23.344;2023-02-11T13:04:58;96510.72;;;6.71;31.56
20027;BME280;10174;42.688;23.344;2023-02-11T13:07:33;96563.63;;;7.59;31.40
20027;BME280;10174;42.688;23.344;2023-02-11T13:10:25;96546.94;;;7.64;30.82
20027;BME280;10174;42.688;23.344;2023-02-11T13:12:54;96557.47;;;5.60;32.59
20027;BME280;10174;42.688;23.344;2023-02-11T13:15:41;96555.47;;;6.82;31.77
20027;BME280;10174;42.688;23.344;2023-02-11T13:18:25;96558.81;;;6.44;32.42
20027;BME280;10174;42.688;23.344;2023-02-11T13:20:59;96510.06;;;5.62;32.61
20027;BME280;10174;42.688;23.344;2023-02-11T13:26:22;96540.53;;;5.26;33.85
20027;BME280;10174;42.688;23.344;2023-02-11T13:31:55;96545.81;;;5.19;33.66
20027;BME280;10174;42.688;23.344;2023-02-11T13:34:57;96551.84;;;4.93;34.22
20027;BME280;10174;42.688;23.344;2023-02-11T13:37:35;96541.34;;;4.43;35.39
20027;BME280;10174;42.688;23.344;2023-02-11T13:40:06;96542.78;;;4.17;36.01
20027;BME280;10174;42.688;23.344;2023-02-11T13:42:33;96542.72;;;4.10;35.95
20027;BME280;10174;42.688;23.344;2023-02-11T13:45:17;96424.59;;;3.27;36.48
20027;BME280;10174;42.688;23.344;2023-02-11T13:47:42;96526.75;;;4.10;35.67
20027;BME280;10174;42.688;23.344;2023-02-11T13:50:23;96446.22;;;3.67;34.72
20027;BME280;10174;42.688;23.344;2023-02-11T13:52:56;96513.09;;;3.92;33.76
20027;BME280;10174;42.688;23.344;2023-02-11T13:55:24;96527.28;;;3.78;34.37
20027;BME280;10174;42.688;23.344;2023-02-11T14:19:45;96505.28;;;3.62;35.89
20027;BME280;10174;42.688;23.344;2023-02-11T14:22:12;96514.31;;;3.68;35.54
20027;BME280;10174;42.688;23.344;2023-02-11T14:27:19;96504.63;;;3.60;36.31
20027;BME280;10174;42.688;23.344;2023-02-11T14:30:30;96438.81;;;3.19;36.40
20027;BME280;10174;42.688;23.344;2023-02-11T14:41:09;96401.66;;;2.82;37.74
20027;BME280;10174;42.688;23.344;2023-02-11T14:43:42;96396.13;;;2.62;38.22
20027;BME280;10174;42.688;23.344;2023-02-11T14:46:09;96440.72;;;3.03;38.35
20027;BME280;10174;42.688;23.344;2023-02-11T14:48:36;96506.59;;;3.51;38.02
20027;BME280;10174;42.688;23.344;2023-02-11T14:51:10;96502.88;;;3.46;37.67
20027;BME280;10174;42.688;23.344;2023-02-11T14:53:42;96514.63;;;3.36;38.24
20027;BME280;10174;42.688;23.344;2023-02-11T14:56:29;96449.72;;;3.02;38.34
20027;BME280;10174;42.688;23.344;2023-02-11T14:58:58;96483.34;;;3.17;38.69
20027;BME280;10174;42.688;23.344;2023-02-11T15:03:52;96499.66;;;3.14;39.58
20027;BME280;10174;42.688;23.344;2023-02-11T15:06:37;96479.09;;;3.01;39.43
20027;BME280;10174;42.688;23.344;2023-02-11T15:09:12;96482.75;;;3.00;39.44
20027;BME280;10174;42.688;23.344;2023-02-11T15:11:40;96421.50;;;2.65;39.84
20027;BME280;10174;42.688;23.344;2023-02-11T15:14:09;96474.06;;;2.91;39.54
20027;BME280;10174;42.688;23.344;2023-02-11T15:16:41;96439.16;;;2.73;39.71
20027;BME280;10174;42.688;23.344;2023-02-11T15:19:17;96312.47;;;1.78;40.05
20027;BME280;10174;42.688;23.344;2023-02-11T15:21:44;96476.72;;;2.91;40.28
20027;BME280;10174;42.688;23.344;2023-02-11T15:24:31;96469.97;;;2.89;40.19
20027;BME280;10174;42.688;23.344;2023-02-11T15:27:12;96385.31;;;2.27;40.77